This is the latest recevied weather packets stored in our database for station/object VE7GEL. If no packets are shown the sender has not sent any weather packets the latest 10 day(s).
| Time | Temp. | Humidity | Pressure | Rain* | Wind** | Luminosity | Snow |
|---|---|---|---|---|---|---|---|
| 1777866358 | 20° C | 48% | 1009.2 hPa | 0 mm | - | 0 W/m² | - |
| 1777865458 | 20° C | 47% | 1009.2 hPa | 0 mm | - | 3 W/m² | - |
| 1777865405 | 20° C | 47% | 1009.5 hPa | 0 mm | - | 3 W/m² | - |
| 1777864558 | 20° C | 47% | 1009.2 hPa | 0 mm | - | 6 W/m² | - |
| 1777863653 | 20° C | 45% | 1009.2 hPa | 0 mm | - | 11 W/m² | - |
| 1777863602 | 20° C | 45% | 1009.5 hPa | 0 mm | - | 12 W/m² | - |
| 1777862755 | 20° C | 47% | 1009.2 hPa | 0 mm | - | 17 W/m² | - |
| 1777862703 | 20° C | 47% | 1009.5 hPa | 0 mm | - | 18 W/m² | - |
| 1777861856 | 21.11° C | 46% | 1009.3 hPa | 0 mm | - | 23 W/m² | - |
| 1777861802 | 21.11° C | 46% | 1009.6 hPa | 0 mm | - | 24 W/m² | - |
| 1777860954 | 21.67° C | 44% | 1009.6 hPa | 0 mm | - | 116 W/m² | - |
| 1777860049 | 21.67° C | 42% | 1009.7 hPa | 0 mm | - | 169 W/m² | - |
| 1777859149 | 21.11° C | 45% | 1009.8 hPa | 0 mm | - | 219 W/m² | - |
| 1777859102 | 21.11° C | 45% | 1010.1 hPa | 0 mm | - | 224 W/m² | - |
| 1777858247 | 20.56° C | 47% | 1010 hPa | 0 mm | - | 319 W/m² | - |
| 1777858202 | 20.56° C | 47% | 1010.3 hPa | 0 mm | - | 312 W/m² | - |
| 1777857346 | 20.56° C | 47% | 1010.1 hPa | 0 mm | - | 344 W/m² | - |
| 1777856447 | 20.56° C | 50% | 1010.2 hPa | 0 mm | - | 407 W/m² | - |
| 1777856402 | 20.56° C | 49% | 1010.5 hPa | 0 mm | - | 412 W/m² | - |
| 1777855547 | 20.56° C | 48% | 1010.3 hPa | 0 mm | - | 461 W/m² | - |
| 1777854646 | 19.44° C | 52% | 1010.5 hPa | 0 mm | - | 525 W/m² | - |
| 1777853741 | 18.89° C | 56% | 1010.7 hPa | 0 mm | - | 585 W/m² | - |
| 1777852841 | 18.33° C | 58% | 1010.8 hPa | 0 mm | - | 639 W/m² | - |
| 1777852805 | 18.33° C | 59% | 1011.2 hPa | 0 mm | - | 643 W/m² | - |
| 1777851942 | 18.33° C | 60% | 1011.1 hPa | 0 mm | - | 697 W/m² | - |
* Rain latest hour (hover to see other rain measurements)
** Current wind speed in m/s (hover to see current wind gust speed)